createdAt,value
2017-11-23T00:01:34.703Z,98481.74
2017-11-23T00:07:38.411Z,98472.73
2017-11-23T00:13:42.715Z,98455.52
2017-11-23T00:19:47.001Z,98444.63
2017-11-23T00:25:51.292Z,98452.53
2017-11-23T00:31:54.817Z,98438.09
2017-11-23T00:37:58.401Z,98425.95
2017-11-23T00:44:02.185Z,98410.53
2017-11-23T00:50:06.483Z,98403.83
2017-11-23T00:56:11.091Z,98412.88
2017-11-23T01:02:15.390Z,98398.58
2017-11-23T01:08:19.700Z,98388.55
2017-11-23T01:14:23.980Z,98389.06
2017-11-23T01:20:27.515Z,98392.19
2017-11-23T01:26:31.951Z,98380.12
2017-11-23T01:32:35.776Z,98372.70
2017-11-23T01:38:40.082Z,98380.95
2017-11-23T01:44:44.386Z,98391.27
2017-11-23T01:50:48.678Z,98397.13
2017-11-23T01:56:53.945Z,98398.38
2017-11-23T02:25:48.550Z,98383.36
2017-11-23T02:31:52.611Z,98392.21
2017-11-23T02:37:56.444Z,98402.00
2017-11-23T02:44:02.009Z,98381.21
2017-11-23T02:50:07.441Z,98401.00
2017-11-23T02:56:11.406Z,98393.80
2017-11-23T03:02:17.405Z,98370.70
2017-11-23T03:08:21.551Z,98385.16
2017-11-23T03:14:25.720Z,98378.34
2017-11-23T03:20:31.458Z,98375.27
2017-11-23T03:26:36.796Z,98376.75
2017-11-23T03:32:42.583Z,98363.55
2017-11-23T03:38:47.164Z,98362.34
2017-11-23T03:44:51.809Z,98348.44
2017-11-23T03:50:55.700Z,98359.80
2017-11-23T03:56:59.576Z,98357.43
2017-11-23T04:03:04.508Z,98356.09
2017-11-23T04:09:08.351Z,98352.73
2017-11-23T04:15:12.658Z,98352.28
2017-11-23T04:21:17.803Z,98346.08
2017-11-23T04:27:22.192Z,98347.21
2017-11-23T04:33:27.997Z,98352.88
2017-11-23T04:39:33.270Z,98346.45
2017-11-23T04:45:37.900Z,98331.28
2017-11-23T04:51:42.366Z,98327.16
2017-11-23T04:57:48.750Z,98316.97
2017-11-23T05:03:52.829Z,98331.18
2017-11-23T05:09:58.900Z,98350.08
2017-11-23T05:16:03.564Z,98338.09
2017-11-23T05:22:08.299Z,98338.03
2017-11-23T05:28:14.066Z,98332.23
2017-11-23T05:34:19.923Z,98330.84
2017-11-23T05:40:25.201Z,98314.05
2017-11-23T05:46:30.993Z,98323.85
2017-11-23T05:52:34.740Z,98313.01
2017-11-23T05:58:39.902Z,98305.98
2017-11-23T06:04:44.708Z,98286.75
2017-11-23T06:10:49.613Z,98278.38
2017-11-23T06:16:55.414Z,98275.30
2017-11-23T06:22:59.096Z,98270.59
2017-11-23T06:29:04.948Z,98270.30
2017-11-23T06:35:11.272Z,98278.63
2017-11-23T06:41:15.893Z,98280.25
2017-11-23T06:47:20.809Z,98290.22
2017-11-23T06:53:25.944Z,98337.92
2017-11-23T06:59:31.941Z,98384.30
2017-11-23T07:05:37.488Z,98358.03
2017-11-23T07:11:42.933Z,98354.22
2017-11-23T07:17:52.159Z,98329.36
2017-11-23T07:23:55.836Z,98308.05
2017-11-23T07:29:59.459Z,98325.73
2017-11-23T07:36:03.831Z,98312.89
2017-11-23T07:42:09.548Z,98318.42
2017-11-23T07:48:16.215Z,98318.02
2017-11-23T07:54:23.553Z,98326.87
2017-11-23T08:00:31.324Z,98338.16
2017-11-23T08:06:37.678Z,98332.36
2017-11-23T08:12:45.082Z,98314.42
2017-11-23T08:18:48.779Z,98334.57
2017-11-23T08:24:54.352Z,98333.26
2017-11-23T08:31:01.872Z,98339.70
2017-11-23T08:37:06.252Z,98338.04
2017-11-23T08:43:12.916Z,98339.34
2017-11-23T08:49:20.668Z,98340.77
2017-11-23T08:55:27.722Z,98355.72
2017-11-23T09:01:38.118Z,98358.98
2017-11-23T09:07:46.157Z,98343.12
2017-11-23T09:13:54.401Z,98349.76
2017-11-23T09:20:01.825Z,98346.64
2017-11-23T09:26:06.673Z,98323.80
2017-11-23T09:32:11.850Z,98328.94
2017-11-23T09:38:19.843Z,98338.13
2017-11-23T09:44:29.537Z,98345.59
2017-11-23T09:50:37.909Z,98335.01
2017-11-23T09:56:42.563Z,98333.45
2017-11-23T10:02:53.367Z,98309.30
2017-11-23T10:09:00.700Z,98287.80
2017-11-23T10:15:04.350Z,98289.91
2017-11-23T10:21:07.970Z,98276.54
2017-11-23T10:27:11.602Z,98242.58
2017-11-23T10:33:23.734Z,98250.64
2017-11-23T10:39:31.784Z,98240.28
2017-11-23T10:45:40.190Z,98244.49
2017-11-23T10:51:44.851Z,98242.54
2017-11-23T10:57:53.697Z,98221.56
2017-11-23T11:04:01.100Z,98224.80
2017-11-23T11:10:04.819Z,98232.09
2017-11-23T11:16:08.455Z,98220.31
2017-11-23T11:22:15.838Z,98214.38
2017-11-23T11:28:26.457Z,98221.31
2017-11-23T11:34:35.143Z,98220.82
2017-11-23T11:40:44.827Z,98258.45
2017-11-23T11:46:53.633Z,98270.50
2017-11-23T11:53:05.274Z,98277.80
2017-11-23T11:59:09.543Z,98272.91
2017-11-23T12:05:13.136Z,98291.14
2017-11-23T12:11:25.766Z,98268.56
2017-11-23T12:24:29.990Z,98286.95
2017-11-23T12:30:33.986Z,98297.14
2017-11-23T12:36:38.268Z,98286.92
2017-11-23T12:42:41.960Z,98293.20
2017-11-23T12:48:45.455Z,98309.31
2017-11-23T12:54:48.952Z,98325.90
2017-11-23T13:00:52.458Z,98327.80
2017-11-23T13:06:56.779Z,98335.59
2017-11-23T13:13:00.303Z,98347.54
2017-11-23T13:19:03.806Z,98357.31
2017-11-23T13:25:07.335Z,98351.45
2017-11-23T13:31:10.837Z,98362.50
2017-11-23T13:37:14.420Z,98369.92
2017-11-23T13:43:17.910Z,98368.83
2017-11-23T13:49:21.425Z,98361.98
2017-11-23T13:55:24.933Z,98342.50
2017-11-23T14:01:29.221Z,98365.89
2017-11-23T14:07:33.007Z,98381.44
2017-11-23T14:13:36.526Z,98378.27
2017-11-23T14:19:40.784Z,98383.80
2017-11-23T14:25:44.277Z,98383.23
2017-11-23T14:31:47.806Z,98391.33
2017-11-23T14:37:51.300Z,98407.33
2017-11-23T14:43:54.827Z,98411.47
2017-11-23T14:49:59.860Z,98414.16
2017-11-23T14:56:03.739Z,98420.59
2017-11-23T15:02:07.276Z,98423.80
2017-11-23T15:08:11.057Z,98431.91
2017-11-23T15:14:15.607Z,98443.23
2017-11-23T15:20:19.169Z,98444.55
2017-11-23T15:26:22.696Z,98444.50
2017-11-23T15:32:26.193Z,98442.69
2017-11-23T15:38:29.724Z,98455.65
2017-11-23T15:44:33.216Z,98471.40
2017-11-23T15:50:36.729Z,98474.66
2017-11-23T15:56:40.211Z,98487.47
2017-11-23T16:02:44.049Z,98469.20
2017-11-23T16:08:48.337Z,98460.25
2017-11-23T16:14:51.860Z,98473.64
2017-11-23T16:20:55.384Z,98481.78
2017-11-23T16:26:58.908Z,98480.50
2017-11-23T16:33:03.221Z,98479.85
2017-11-23T16:39:07.502Z,98503.77
2017-11-23T16:45:16.516Z,98504.05
2017-11-23T16:58:08.001Z,98506.02
2017-11-23T17:04:22.886Z,98502.61
2017-11-23T17:17:13.701Z,98523.55
2017-11-23T17:23:17.243Z,98531.48
2017-11-23T17:29:20.786Z,98528.41
2017-11-23T17:35:24.379Z,98533.80
2017-11-23T17:41:27.957Z,98544.68
2017-11-23T17:47:31.533Z,98547.13
2017-11-23T17:53:35.083Z,98545.67
2017-11-23T17:59:38.747Z,98552.34
2017-11-23T18:05:42.303Z,98565.68
2017-11-23T18:11:45.858Z,98574.03
2017-11-23T18:17:50.171Z,98584.07
2017-11-23T18:23:53.733Z,98574.43
2017-11-23T18:29:58.045Z,98571.39
2017-11-23T18:36:02.391Z,98579.45
2017-11-23T18:42:05.938Z,98582.68
2017-11-23T18:48:10.256Z,98587.91
2017-11-23T18:54:13.841Z,98599.48
2017-11-23T19:00:17.392Z,98612.09
2017-11-23T19:06:21.711Z,98615.22
2017-11-23T19:12:26.015Z,98650.95
2017-11-23T19:18:30.377Z,98681.70
2017-11-23T19:24:33.919Z,98698.70
2017-11-23T19:30:37.799Z,98721.16
2017-11-23T19:36:42.231Z,98723.42
2017-11-23T19:42:45.919Z,98738.69
2017-11-23T19:48:49.503Z,98735.27
2017-11-23T19:54:53.080Z,98740.39
2017-11-23T20:00:56.619Z,98735.95
2017-11-23T20:07:00.174Z,98730.20
2017-11-23T20:13:03.736Z,98747.48
2017-11-23T20:19:07.367Z,98747.98
2017-11-23T20:25:10.946Z,98754.64
2017-11-23T20:31:14.493Z,98758.78
2017-11-23T20:37:18.820Z,98755.97
2017-11-23T20:43:22.384Z,98754.10
2017-11-23T20:49:25.964Z,98754.81
2017-11-23T20:55:29.580Z,98758.27
2017-11-23T21:01:33.128Z,98774.91
2017-11-23T21:07:37.502Z,98779.86
2017-11-23T21:13:41.072Z,98795.84
2017-11-23T21:19:44.752Z,98803.77
2017-11-23T21:25:48.281Z,98799.51
2017-11-23T21:31:51.844Z,98799.52
2017-11-23T21:37:55.400Z,98790.13
2017-11-23T21:43:58.976Z,98802.66
2017-11-23T21:50:02.560Z,98790.34
2017-11-23T21:56:06.112Z,98788.66
2017-11-23T22:02:09.682Z,98809.00
2017-11-23T22:08:13.232Z,98840.35
2017-11-23T22:14:16.829Z,98858.09
2017-11-23T22:20:20.400Z,98861.97
2017-11-23T22:26:23.975Z,98874.27
2017-11-23T22:32:27.548Z,98879.59
2017-11-23T22:38:32.238Z,98882.27
2017-11-23T22:44:35.788Z,98888.39
2017-11-23T22:50:39.324Z,98878.05
2017-11-23T22:56:43.669Z,98874.03
2017-11-23T23:02:47.226Z,98869.24
2017-11-23T23:08:51.620Z,98866.69
2017-11-23T23:14:55.936Z,98860.73
2017-11-23T23:20:59.505Z,98846.48
2017-11-23T23:27:03.035Z,98851.66
2017-11-23T23:33:06.641Z,98857.30
2017-11-23T23:39:10.251Z,98869.27
2017-11-23T23:45:13.794Z,98874.63
2017-11-23T23:51:17.365Z,98861.76
2017-11-23T23:57:20.890Z,98864.42
